sensor_id;sensor_type;location;lat;lon;timestamp;pressure;altitude;pressure_sealevel;temperature;humidity
77795;BME280;66985;45.778;3.090;2023-02-03T00:01:18;98862.68;;;19.08;17.20
77795;BME280;66985;45.778;3.090;2023-02-03T00:03:44;98864.35;;;19.38;17.08
77795;BME280;66985;45.778;3.090;2023-02-03T00:06:09;98856.28;;;19.10;17.23
77795;BME280;66985;45.778;3.090;2023-02-03T00:08:35;98856.89;;;19.43;17.08
77795;BME280;66985;45.778;3.090;2023-02-03T00:11:00;98854.80;;;19.23;17.08
77795;BME280;66985;45.778;3.090;2023-02-03T00:13:26;98857.02;;;19.18;17.20
77795;BME280;66985;45.778;3.090;2023-02-03T00:15:51;98855.18;;;19.11;17.10
77795;BME280;66985;45.778;3.090;2023-02-03T00:18:16;98851.66;;;18.92;17.34
77795;BME280;66985;45.778;3.090;2023-02-03T00:20:42;98848.72;;;18.88;17.19
77795;BME280;66985;45.778;3.090;2023-02-03T00:23:09;98848.49;;;18.98;17.16
77795;BME280;66985;45.778;3.090;2023-02-03T00:25:33;98845.65;;;18.80;17.25
77795;BME280;66985;45.778;3.090;2023-02-03T00:27:58;98847.47;;;19.13;17.02
77795;BME280;66985;45.778;3.090;2023-02-03T00:30:24;98852.07;;;19.06;17.10
77795;BME280;66985;45.778;3.090;2023-02-03T00:32:49;98855.27;;;19.00;17.08
77795;BME280;66985;45.778;3.090;2023-02-03T00:35:15;98854.02;;;18.75;17.24
77795;BME280;66985;45.778;3.090;2023-02-03T00:37:40;98852.84;;;18.76;17.18
77795;BME280;66985;45.778;3.090;2023-02-03T00:40:06;98850.86;;;19.33;17.05
77795;BME280;66985;45.778;3.090;2023-02-03T00:42:32;98847.25;;;18.85;17.24
77795;BME280;66985;45.778;3.090;2023-02-03T00:44:56;98846.19;;;19.04;17.13
77795;BME280;66985;45.778;3.090;2023-02-03T00:47:22;98846.70;;;18.74;17.13
77795;BME280;66985;45.778;3.090;2023-02-03T00:49:47;98848.11;;;18.89;17.18
77795;BME280;66985;45.778;3.090;2023-02-03T00:52:12;98848.01;;;18.71;17.14
77795;BME280;66985;45.778;3.090;2023-02-03T00:54:38;98849.14;;;18.71;17.09
77795;BME280;66985;45.778;3.090;2023-02-03T00:57:03;98847.66;;;18.81;17.14
77795;BME280;66985;45.778;3.090;2023-02-03T00:59:29;98848.85;;;19.27;16.97
77795;BME280;66985;45.778;3.090;2023-02-03T01:01:54;98853.56;;;18.81;17.06
77795;BME280;66985;45.778;3.090;2023-02-03T01:04:20;98858.83;;;18.65;17.04
77795;BME280;66985;45.778;3.090;2023-02-03T01:06:45;98864.67;;;19.34;16.99
77795;BME280;66985;45.778;3.090;2023-02-03T01:09:11;98867.33;;;18.85;16.92
77795;BME280;66985;45.778;3.090;2023-02-03T01:11:37;98872.68;;;18.98;16.94
77795;BME280;66985;45.778;3.090;2023-02-03T01:14:02;98876.55;;;19.01;17.03
77795;BME280;66985;45.778;3.090;2023-02-03T01:16:29;98877.54;;;19.04;16.96
77795;BME280;66985;45.778;3.090;2023-02-03T01:18:54;98873.94;;;19.09;16.95
77795;BME280;66985;45.778;3.090;2023-02-03T01:21:20;98874.71;;;18.97;17.03
77795;BME280;66985;45.778;3.090;2023-02-03T01:23:44;98877.92;;;18.84;16.96
77795;BME280;66985;45.778;3.090;2023-02-03T01:26:11;98877.82;;;18.85;16.97
77795;BME280;66985;45.778;3.090;2023-02-03T01:28:35;98876.07;;;18.50;17.17
77795;BME280;66985;45.778;3.090;2023-02-03T01:31:08;98876.47;;;18.81;17.12
77795;BME280;66985;45.778;3.090;2023-02-03T01:33:25;98879.78;;;18.82;17.08
77795;BME280;66985;45.778;3.090;2023-02-03T01:35:51;98882.62;;;18.82;17.01
77795;BME280;66985;45.778;3.090;2023-02-03T01:38:16;98885.57;;;18.78;17.05
77795;BME280;66985;45.778;3.090;2023-02-03T01:40:42;98889.21;;;19.02;17.23
77795;BME280;66985;45.778;3.090;2023-02-03T01:43:08;98892.22;;;18.87;17.06
77795;BME280;66985;45.778;3.090;2023-02-03T01:45:33;98893.62;;;18.87;16.99
77795;BME280;66985;45.778;3.090;2023-02-03T01:47:59;98896.90;;;19.08;17.04
77795;BME280;66985;45.778;3.090;2023-02-03T01:50:27;98899.60;;;18.43;17.02
77795;BME280;66985;45.778;3.090;2023-02-03T01:52:51;98899.50;;;18.58;17.01
77795;BME280;66985;45.778;3.090;2023-02-03T01:55:19;98895.20;;;18.65;17.11
77795;BME280;66985;45.778;3.090;2023-02-03T01:57:44;98893.61;;;18.92;17.03
77795;BME280;66985;45.778;3.090;2023-02-03T02:00:08;98892.92;;;18.86;16.92
77795;BME280;66985;45.778;3.090;2023-02-03T02:02:32;98890.10;;;18.65;16.94
77795;BME280;66985;45.778;3.090;2023-02-03T02:05:02;98889.37;;;18.87;16.85
77795;BME280;66985;45.778;3.090;2023-02-03T02:07:23;98885.55;;;18.66;16.95
77795;BME280;66985;45.778;3.090;2023-02-03T02:09:48;98883.02;;;18.95;16.95
77795;BME280;66985;45.778;3.090;2023-02-03T02:12:14;98880.10;;;19.01;16.87
77795;BME280;66985;45.778;3.090;2023-02-03T02:14:40;98874.85;;;18.63;17.08
77795;BME280;66985;45.778;3.090;2023-02-03T02:17:10;98871.12;;;18.30;17.03
77795;BME280;66985;45.778;3.090;2023-02-03T02:19:51;98872.42;;;18.75;16.96
77795;BME280;66985;45.778;3.090;2023-02-03T02:22:02;98871.14;;;18.41;17.10
77795;BME280;66985;45.778;3.090;2023-02-03T02:24:34;98871.88;;;18.77;16.95
77795;BME280;66985;45.778;3.090;2023-02-03T02:26:54;98866.40;;;18.58;16.88
77795;BME280;66985;45.778;3.090;2023-02-03T02:32:08;98863.20;;;18.48;17.11
77795;BME280;66985;45.778;3.090;2023-02-03T02:33:58;98861.96;;;18.05;17.10
77795;BME280;66985;45.778;3.090;2023-02-03T02:36:56;98860.34;;;18.38;16.87
77795;BME280;66985;45.778;3.090;2023-02-03T02:39:20;98861.81;;;18.86;16.80
77795;BME280;66985;45.778;3.090;2023-02-03T02:41:43;98864.24;;;18.88;16.74
77795;BME280;66985;45.778;3.090;2023-02-03T02:44:10;98863.73;;;18.66;16.82
77795;BME280;66985;45.778;3.090;2023-02-03T02:46:36;98864.48;;;18.85;16.76
77795;BME280;66985;45.778;3.090;2023-02-03T02:49:00;98862.33;;;18.75;16.75
77795;BME280;66985;45.778;3.090;2023-02-03T02:51:24;98856.42;;;18.58;16.77
77795;BME280;66985;45.778;3.090;2023-02-03T02:53:53;98855.37;;;18.46;16.85
77795;BME280;66985;45.778;3.090;2023-02-03T02:56:16;98852.71;;;18.25;16.83
77795;BME280;66985;45.778;3.090;2023-02-03T02:58:43;98853.48;;;18.65;16.80
77795;BME280;66985;45.778;3.090;2023-02-03T03:01:07;98860.56;;;18.44;16.79
77795;BME280;66985;45.778;3.090;2023-02-03T03:03:31;98862.14;;;18.56;16.75
77795;BME280;66985;45.778;3.090;2023-02-03T03:05:59;98861.35;;;18.68;16.75
77795;BME280;66985;45.778;3.090;2023-02-03T03:08:28;98860.80;;;18.72;16.71
77795;BME280;66985;45.778;3.090;2023-02-03T03:10:49;98857.64;;;18.74;16.55
77795;BME280;66985;45.778;3.090;2023-02-03T03:13:24;98854.62;;;18.44;16.83
77795;BME280;66985;45.778;3.090;2023-02-03T03:15:40;98856.48;;;18.83;16.57
77795;BME280;66985;45.778;3.090;2023-02-03T03:18:07;98852.80;;;18.99;16.43
77795;BME280;66985;45.778;3.090;2023-02-03T03:20:30;98849.71;;;19.12;16.37
77795;BME280;66985;45.778;3.090;2023-02-03T03:22:59;98854.75;;;19.32;16.15
77795;BME280;66985;45.778;3.090;2023-02-03T03:25:24;98852.46;;;18.94;16.24
77795;BME280;66985;45.778;3.090;2023-02-03T03:27:49;98857.12;;;18.95;16.40
77795;BME280;66985;45.778;3.090;2023-02-03T03:30:16;98861.89;;;18.99;16.31
77795;BME280;66985;45.778;3.090;2023-02-03T03:32:38;98865.58;;;18.98;16.37
77795;BME280;66985;45.778;3.090;2023-02-03T03:35:04;98870.12;;;19.10;16.26
77795;BME280;66985;45.778;3.090;2023-02-03T03:37:33;98868.20;;;19.04;16.24
77795;BME280;66985;45.778;3.090;2023-02-03T03:39:56;98871.15;;;19.04;16.31
77795;BME280;66985;45.778;3.090;2023-02-03T03:42:22;98871.93;;;19.01;16.21
77795;BME280;66985;45.778;3.090;2023-02-03T03:44:50;98878.53;;;18.74;16.25
77795;BME280;66985;45.778;3.090;2023-02-03T03:47:13;98883.24;;;18.75;16.31
77795;BME280;66985;45.778;3.090;2023-02-03T03:49:39;98878.69;;;18.93;16.23
77795;BME280;66985;45.778;3.090;2023-02-03T03:52:05;98876.27;;;19.15;16.18
77795;BME280;66985;45.778;3.090;2023-02-03T03:54:29;98871.84;;;19.11;16.27
77795;BME280;66985;45.778;3.090;2023-02-03T03:56:57;98872.55;;;19.12;16.15
77795;BME280;66985;45.778;3.090;2023-02-03T03:59:20;98874.87;;;19.00;16.22
77795;BME280;66985;45.778;3.090;2023-02-03T04:01:44;98875.34;;;18.98;16.25
77795;BME280;66985;45.778;3.090;2023-02-03T04:04:10;98878.56;;;19.21;16.03
77795;BME280;66985;45.778;3.090;2023-02-03T04:06:37;98884.48;;;19.22;16.06
77795;BME280;66985;45.778;3.090;2023-02-03T04:09:01;98882.50;;;19.44;16.00
77795;BME280;66985;45.778;3.090;2023-02-03T04:11:26;98884.99;;;19.39;15.98
77795;BME280;66985;45.778;3.090;2023-02-03T04:13:52;98882.38;;;19.38;15.95
77795;BME280;66985;45.778;3.090;2023-02-03T04:16:17;98884.19;;;19.62;15.89
77795;BME280;66985;45.778;3.090;2023-02-03T04:18:42;98885.51;;;19.35;15.96
77795;BME280;66985;45.778;3.090;2023-02-03T04:21:08;98888.92;;;19.48;15.97
77795;BME280;66985;45.778;3.090;2023-02-03T04:23:34;98890.18;;;19.66;15.87
77795;BME280;66985;45.778;3.090;2023-02-03T04:26:00;98887.23;;;19.41;15.91
77795;BME280;66985;45.778;3.090;2023-02-03T04:28:25;98880.62;;;19.57;15.87
77795;BME280;66985;45.778;3.090;2023-02-03T04:30:50;98876.34;;;19.65;15.86
77795;BME280;66985;45.778;3.090;2023-02-03T04:33:16;98873.44;;;19.70;15.81
77795;BME280;66985;45.778;3.090;2023-02-03T04:35:41;98874.69;;;19.62;15.84
77795;BME280;66985;45.778;3.090;2023-02-03T04:38:07;98875.39;;;19.45;15.87
77795;BME280;66985;45.778;3.090;2023-02-03T04:40:32;98869.34;;;19.67;15.90
77795;BME280;66985;45.778;3.090;2023-02-03T04:42:58;98863.84;;;19.53;15.93
77795;BME280;66985;45.778;3.090;2023-02-03T04:45:23;98857.07;;;19.62;15.90
77795;BME280;66985;45.778;3.090;2023-02-03T04:47:51;98855.77;;;20.01;15.78
77795;BME280;66985;45.778;3.090;2023-02-03T04:50:15;98852.86;;;19.82;15.78
77795;BME280;66985;45.778;3.090;2023-02-03T04:52:40;98853.20;;;19.73;15.88
77795;BME280;66985;45.778;3.090;2023-02-03T04:55:06;98852.37;;;19.61;15.97
77795;BME280;66985;45.778;3.090;2023-02-03T04:57:31;98844.71;;;19.55;15.91
77795;BME280;66985;45.778;3.090;2023-02-03T04:59:56;98839.75;;;19.76;15.84
77795;BME280;66985;45.778;3.090;2023-02-03T05:02:22;98833.48;;;19.69;15.96
77795;BME280;66985;45.778;3.090;2023-02-03T05:04:47;98828.79;;;19.77;15.87
77795;BME280;66985;45.778;3.090;2023-02-03T05:07:13;98823.38;;;19.82;15.81
77795;BME280;66985;45.778;3.090;2023-02-03T05:09:38;98819.07;;;19.92;15.73
77795;BME280;66985;45.778;3.090;2023-02-03T05:12:04;98815.49;;;19.97;15.80
77795;BME280;66985;45.778;3.090;2023-02-03T05:14:29;98817.40;;;19.62;15.94
77795;BME280;66985;45.778;3.090;2023-02-03T05:16:55;98808.94;;;19.78;15.86
77795;BME280;66985;45.778;3.090;2023-02-03T05:19:20;98803.30;;;20.04;15.74
77795;BME280;66985;45.778;3.090;2023-02-03T05:21:46;98801.14;;;19.88;15.81
77795;BME280;66985;45.778;3.090;2023-02-03T05:24:11;98799.49;;;19.99;15.78
77795;BME280;66985;45.778;3.090;2023-02-03T05:26:37;98796.80;;;19.96;15.79
77795;BME280;66985;45.778;3.090;2023-02-03T05:29:03;98792.20;;;19.73;15.85
77795;BME280;66985;45.778;3.090;2023-02-03T05:31:28;98790.45;;;19.90;15.86
77795;BME280;66985;45.778;3.090;2023-02-03T05:33:53;98789.50;;;19.90;15.84
77795;BME280;66985;45.778;3.090;2023-02-03T05:36:19;98788.10;;;20.01;15.85
77795;BME280;66985;45.778;3.090;2023-02-03T05:38:44;98791.93;;;20.00;15.93
77795;BME280;66985;45.778;3.090;2023-02-03T05:41:11;98788.35;;;19.99;15.84
77795;BME280;66985;45.778;3.090;2023-02-03T05:43:36;98789.48;;;19.82;15.78
77795;BME280;66985;45.778;3.090;2023-02-03T05:46:01;98788.56;;;19.84;15.89
77795;BME280;66985;45.778;3.090;2023-02-03T05:48:27;98785.26;;;19.82;15.92
77795;BME280;66985;45.778;3.090;2023-02-03T05:50:52;98783.61;;;19.84;15.91
77795;BME280;66985;45.778;3.090;2023-02-03T05:53:17;98779.76;;;19.93;15.83
77795;BME280;66985;45.778;3.090;2023-02-03T05:55:43;98779.24;;;19.79;15.81
77795;BME280;66985;45.778;3.090;2023-02-03T05:58:08;98776.87;;;20.12;15.78
77795;BME280;66985;45.778;3.090;2023-02-03T06:00:34;98777.20;;;20.11;15.85
77795;BME280;66985;45.778;3.090;2023-02-03T06:03:00;98778.34;;;19.92;15.84
77795;BME280;66985;45.778;3.090;2023-02-03T06:05:25;98774.78;;;19.81;15.86
77795;BME280;66985;45.778;3.090;2023-02-03T06:07:50;98767.08;;;19.88;15.85
77795;BME280;66985;45.778;3.090;2023-02-03T06:10:16;98763.06;;;20.22;15.67
77795;BME280;66985;45.778;3.090;2023-02-03T06:12:41;98759.69;;;19.79;15.79
77795;BME280;66985;45.778;3.090;2023-02-03T06:15:08;98759.00;;;20.13;15.75
77795;BME280;66985;45.778;3.090;2023-02-03T06:17:32;98759.05;;;20.03;15.93
77795;BME280;66985;45.778;3.090;2023-02-03T06:19:58;98755.70;;;19.94;15.92
77795;BME280;66985;45.778;3.090;2023-02-03T06:22:23;98758.81;;;19.82;15.92
77795;BME280;66985;45.778;3.090;2023-02-03T06:24:49;98765.22;;;19.84;15.96
77795;BME280;66985;45.778;3.090;2023-02-03T06:27:14;98769.40;;;19.72;16.01
77795;BME280;66985;45.778;3.090;2023-02-03T06:29:40;98778.08;;;19.94;15.89
77795;BME280;66985;45.778;3.090;2023-02-03T06:32:05;98780.09;;;19.38;16.02
77795;BME280;66985;45.778;3.090;2023-02-03T06:34:31;98785.13;;;19.60;16.04
77795;BME280;66985;45.778;3.090;2023-02-03T06:36:56;98787.87;;;19.75;15.95
77795;BME280;66985;45.778;3.090;2023-02-03T06:39:21;98790.38;;;20.08;15.92
77795;BME280;66985;45.778;3.090;2023-02-03T06:41:47;98788.08;;;19.99;15.94
77795;BME280;66985;45.778;3.090;2023-02-03T06:44:12;98786.45;;;19.89;16.08
77795;BME280;66985;45.778;3.090;2023-02-03T06:46:38;98787.80;;;18.35;13.96
77795;BME280;66985;45.778;3.090;2023-02-03T06:49:03;98786.54;;;15.46;13.89
77795;BME280;66985;45.778;3.090;2023-02-03T06:51:29;98784.78;;;14.87;15.34
77795;BME280;66985;45.778;3.090;2023-02-03T06:53:54;98793.15;;;10.33;18.10
77795;BME280;66985;45.778;3.090;2023-02-03T06:56:20;98789.82;;;12.79;17.26
77795;BME280;66985;45.778;3.090;2023-02-03T06:58:45;98787.56;;;16.98;15.75
77795;BME280;66985;45.778;3.090;2023-02-03T07:01:11;98789.52;;;17.71;15.21
77795;BME280;66985;45.778;3.090;2023-02-03T07:03:36;98792.53;;;17.11;15.02
77795;BME280;66985;45.778;3.090;2023-02-03T07:06:02;98800.27;;;17.51;14.96
77795;BME280;66985;45.778;3.090;2023-02-03T07:08:27;98813.66;;;17.87;14.65
77795;BME280;66985;45.778;3.090;2023-02-03T07:10:54;98822.30;;;17.84;14.34
77795;BME280;66985;45.778;3.090;2023-02-03T07:13:19;98825.21;;;18.25;14.00
77795;BME280;66985;45.778;3.090;2023-02-03T07:15:44;98829.99;;;17.99;14.14
77795;BME280;66985;45.778;3.090;2023-02-03T07:18:10;98836.16;;;18.63;13.80
77795;BME280;66985;45.778;3.090;2023-02-03T07:20:35;98842.89;;;19.57;13.54
77795;BME280;66985;45.778;3.090;2023-02-03T07:23:01;98849.96;;;19.14;13.70
77795;BME280;66985;45.778;3.090;2023-02-03T07:25:27;98863.03;;;19.37;13.71
77795;BME280;66985;45.778;3.090;2023-02-03T07:27:52;98872.81;;;19.31;13.81
77795;BME280;66985;45.778;3.090;2023-02-03T07:30:18;98872.38;;;19.15;13.95
77795;BME280;66985;45.778;3.090;2023-02-03T07:32:46;98871.85;;;19.00;14.08
77795;BME280;66985;45.778;3.090;2023-02-03T07:35:09;98869.42;;;18.91;14.16
77795;BME280;66985;45.778;3.090;2023-02-03T07:37:34;98871.96;;;18.77;14.24
77795;BME280;66985;45.778;3.090;2023-02-03T07:40:00;98882.50;;;19.27;14.10
77795;BME280;66985;45.778;3.090;2023-02-03T07:42:25;98880.78;;;19.71;13.93
77795;BME280;66985;45.778;3.090;2023-02-03T07:44:51;98884.36;;;19.56;13.91
77795;BME280;66985;45.778;3.090;2023-02-03T07:47:16;98884.14;;;19.52;14.03
77795;BME280;66985;45.778;3.090;2023-02-03T07:49:42;98887.38;;;19.67;14.04
77795;BME280;66985;45.778;3.090;2023-02-03T07:52:07;98892.67;;;19.48;14.11
77795;BME280;66985;45.778;3.090;2023-02-03T07:54:32;98894.61;;;19.47;14.20
77795;BME280;66985;45.778;3.090;2023-02-03T07:56:58;98895.93;;;19.64;14.24
77795;BME280;66985;45.778;3.090;2023-02-03T07:59:23;98895.04;;;13.82;15.40
77795;BME280;66985;45.778;3.090;2023-02-03T08:01:49;98893.88;;;15.12;14.99
77795;BME280;66985;45.778;3.090;2023-02-03T08:04:14;98889.99;;;16.66;14.68
77795;BME280;66985;45.778;3.090;2023-02-03T08:06:40;98886.27;;;16.30;15.05
77795;BME280;66985;45.778;3.090;2023-02-03T08:09:06;98893.37;;;15.43;17.04
77795;BME280;66985;45.778;3.090;2023-02-03T08:11:33;98892.62;;;16.71;16.05
77795;BME280;66985;45.778;3.090;2023-02-03T08:13:58;98895.94;;;17.60;15.13
77795;BME280;66985;45.778;3.090;2023-02-03T08:16:24;98896.66;;;18.12;14.62
77795;BME280;66985;45.778;3.090;2023-02-03T08:18:50;98888.51;;;18.12;14.47
77795;BME280;66985;45.778;3.090;2023-02-03T08:21:16;98886.89;;;18.46;14.28
77795;BME280;66985;45.778;3.090;2023-02-03T08:23:40;98883.79;;;18.56;14.20
77795;BME280;66985;45.778;3.090;2023-02-03T08:26:05;98879.34;;;18.43;14.20
77795;BME280;66985;45.778;3.090;2023-02-03T08:28:33;98877.13;;;18.43;14.17
77795;BME280;66985;45.778;3.090;2023-02-03T08:30:57;98876.89;;;18.75;14.05
77795;BME280;66985;45.778;3.090;2023-02-03T08:33:22;98880.65;;;18.87;14.10
77795;BME280;66985;45.778;3.090;2023-02-03T08:35:49;98876.80;;;18.82;14.30
77795;BME280;66985;45.778;3.090;2023-02-03T08:38:13;98876.29;;;19.02;14.21
77795;BME280;66985;45.778;3.090;2023-02-03T08:40:38;98880.01;;;18.91;14.28
77795;BME280;66985;45.778;3.090;2023-02-03T08:43:03;98884.07;;;19.07;14.28
77795;BME280;66985;45.778;3.090;2023-02-03T08:45:29;98886.40;;;19.04;14.36
77795;BME280;66985;45.778;3.090;2023-02-03T08:47:55;98887.28;;;18.84;14.46
77795;BME280;66985;45.778;3.090;2023-02-03T08:50:20;98893.33;;;18.80;14.51
77795;BME280;66985;45.778;3.090;2023-02-03T08:52:45;98904.21;;;18.95;14.53
77795;BME280;66985;45.778;3.090;2023-02-03T08:55:11;98909.06;;;19.01;14.56
77795;BME280;66985;45.778;3.090;2023-02-03T08:57:36;98911.56;;;19.09;14.54
77795;BME280;66985;45.778;3.090;2023-02-03T09:00:02;98914.23;;;19.19;14.55
77795;BME280;66985;45.778;3.090;2023-02-03T09:02:27;98915.08;;;19.15;14.63
77795;BME280;66985;45.778;3.090;2023-02-03T09:04:52;98917.47;;;19.03;14.69
77795;BME280;66985;45.778;3.090;2023-02-03T09:07:19;98921.07;;;19.17;14.68
77795;BME280;66985;45.778;3.090;2023-02-03T09:09:44;98926.50;;;19.35;14.70
77795;BME280;66985;45.778;3.090;2023-02-03T09:12:09;98926.39;;;19.46;14.70
77795;BME280;66985;45.778;3.090;2023-02-03T09:14:35;98924.97;;;19.19;14.82
77795;BME280;66985;45.778;3.090;2023-02-03T09:17:00;98922.88;;;19.37;14.80
77795;BME280;66985;45.778;3.090;2023-02-03T09:19:25;98928.63;;;19.08;14.93
77795;BME280;66985;45.778;3.090;2023-02-03T09:21:50;98932.66;;;19.39;14.80
77795;BME280;66985;45.778;3.090;2023-02-03T09:24:17;98934.16;;;19.31;14.83
77795;BME280;66985;45.778;3.090;2023-02-03T09:26:41;98930.06;;;19.13;14.98
77795;BME280;66985;45.778;3.090;2023-02-03T09:29:07;98933.55;;;19.18;14.97
77795;BME280;66985;45.778;3.090;2023-02-03T09:31:32;98937.79;;;19.08;15.12
77795;BME280;66985;45.778;3.090;2023-02-03T09:33:58;98942.34;;;19.08;15.01
77795;BME280;66985;45.778;3.090;2023-02-03T09:36:23;98942.31;;;19.13;15.06
77795;BME280;66985;45.778;3.090;2023-02-03T09:38:49;98946.71;;;19.58;14.87
77795;BME280;66985;45.778;3.090;2023-02-03T09:41:22;98951.51;;;19.29;14.97
77795;BME280;66985;45.778;3.090;2023-02-03T09:43:43;98960.13;;;19.25;15.03
77795;BME280;66985;45.778;3.090;2023-02-03T09:46:07;98959.42;;;19.27;15.17
77795;BME280;66985;45.778;3.090;2023-02-03T09:48:34;98962.42;;;19.22;15.16
77795;BME280;66985;45.778;3.090;2023-02-03T09:50:56;98969.08;;;19.37;15.11
77795;BME280;66985;45.778;3.090;2023-02-03T09:53:26;98971.50;;;19.18;15.25
77795;BME280;66985;45.778;3.090;2023-02-03T09:55:47;98972.45;;;19.37;15.23
77795;BME280;66985;45.778;3.090;2023-02-03T09:58:14;98974.01;;;19.20;15.29
77795;BME280;66985;45.778;3.090;2023-02-03T10:00:41;98974.13;;;19.05;15.41
77795;BME280;66985;45.778;3.090;2023-02-03T10:03:07;98976.95;;;19.17;15.33
77795;BME280;66985;45.778;3.090;2023-02-03T10:05:41;98977.35;;;19.20;15.29
77795;BME280;66985;45.778;3.090;2023-02-03T10:08:02;98975.14;;;19.37;15.20
77795;BME280;66985;45.778;3.090;2023-02-03T10:10:27;98975.33;;;19.19;15.37
77795;BME280;66985;45.778;3.090;2023-02-03T10:12:54;98975.21;;;19.45;15.16
77795;BME280;66985;45.778;3.090;2023-02-03T10:15:27;98977.26;;;19.74;15.12
77795;BME280;66985;45.778;3.090;2023-02-03T10:17:38;98973.49;;;19.09;15.30
77795;BME280;66985;45.778;3.090;2023-02-03T10:20:07;98965.95;;;19.69;15.04
77795;BME280;66985;45.778;3.090;2023-02-03T10:22:30;98959.68;;;19.30;15.30
77795;BME280;66985;45.778;3.090;2023-02-03T10:24:56;98954.14;;;19.32;15.33
77795;BME280;66985;45.778;3.090;2023-02-03T10:27:21;98951.64;;;19.61;15.20
77795;BME280;66985;45.778;3.090;2023-02-03T10:29:48;98953.14;;;19.13;15.47
77795;BME280;66985;45.778;3.090;2023-02-03T10:32:11;98952.74;;;19.36;15.37
77795;BME280;66985;45.778;3.090;2023-02-03T10:34:36;98947.10;;;19.35;15.53
77795;BME280;66985;45.778;3.090;2023-02-03T10:37:04;98948.97;;;18.54;15.74
77795;BME280;66985;45.778;3.090;2023-02-03T10:39:30;98951.03;;;19.84;15.24
77795;BME280;66985;45.778;3.090;2023-02-03T10:41:53;98948.02;;;18.87;15.61
77795;BME280;66985;45.778;3.090;2023-02-03T10:44:18;98948.52;;;19.30;15.61
77795;BME280;66985;45.778;3.090;2023-02-03T10:46:44;98951.23;;;19.37;15.48
77795;BME280;66985;45.778;3.090;2023-02-03T10:49:09;98951.69;;;19.69;15.43
77795;BME280;66985;45.778;3.090;2023-02-03T10:51:36;98948.79;;;19.48;15.59
77795;BME280;66985;45.778;3.090;2023-02-03T10:53:59;98947.11;;;19.01;15.83
77795;BME280;66985;45.778;3.090;2023-02-03T10:56:26;98949.21;;;18.93;15.77
77795;BME280;66985;45.778;3.090;2023-02-03T10:58:51;98948.11;;;19.06;15.80
77795;BME280;66985;45.778;3.090;2023-02-03T11:01:17;98946.99;;;19.59;15.61
77795;BME280;66985;45.778;3.090;2023-02-03T11:03:42;98942.96;;;19.31;15.78
77795;BME280;66985;45.778;3.090;2023-02-03T11:06:08;98948.48;;;19.63;15.63
77795;BME280;66985;45.778;3.090;2023-02-03T11:08:32;98948.96;;;19.46;15.69
77795;BME280;66985;45.778;3.090;2023-02-03T11:11:01;98949.70;;;19.51;15.67
77795;BME280;66985;45.778;3.090;2023-02-03T11:13:24;98946.08;;;19.22;15.81
77795;BME280;66985;45.778;3.090;2023-02-03T11:15:53;98939.64;;;19.58;15.72
77795;BME280;66985;45.778;3.090;2023-02-03T11:18:50;98933.93;;;19.20;16.03
77795;BME280;66985;45.778;3.090;2023-02-03T11:20:39;98932.72;;;19.10;15.92
77795;BME280;66985;45.778;3.090;2023-02-03T11:23:04;98932.09;;;19.38;15.86
77795;BME280;66985;45.778;3.090;2023-02-03T11:25:32;98933.85;;;18.78;16.18
77795;BME280;66985;45.778;3.090;2023-02-03T11:28:03;98931.32;;;18.93;16.07
77795;BME280;66985;45.778;3.090;2023-02-03T11:30:23;98923.73;;;19.27;16.00
77795;BME280;66985;45.778;3.090;2023-02-03T11:32:48;98922.61;;;18.87;15.94
77795;BME280;66985;45.778;3.090;2023-02-03T11:35:15;98923.02;;;19.63;15.68
77795;BME280;66985;45.778;3.090;2023-02-03T11:37:39;98920.55;;;19.21;15.87
77795;BME280;66985;45.778;3.090;2023-02-03T11:40:36;98922.38;;;19.19;15.86
77795;BME280;66985;45.778;3.090;2023-02-03T11:42:29;98916.62;;;18.73;16.01
77795;BME280;66985;45.778;3.090;2023-02-03T11:45:13;98921.77;;;18.87;15.99
77795;BME280;66985;45.778;3.090;2023-02-03T11:47:19;98920.68;;;19.04;15.84
77795;BME280;66985;45.778;3.090;2023-02-03T11:50:23;98920.81;;;18.82;15.92
77795;BME280;66985;45.778;3.090;2023-02-03T11:52:24;98918.80;;;18.67;15.89
77795;BME280;66985;45.778;3.090;2023-02-03T11:54:42;98919.86;;;19.73;15.38
77795;BME280;66985;45.778;3.090;2023-02-03T11:57:16;98917.06;;;19.57;15.64
77795;BME280;66985;45.778;3.090;2023-02-03T11:59:39;98922.40;;;19.62;15.46
77795;BME280;66985;45.778;3.090;2023-02-03T12:02:04;98921.16;;;19.68;15.37
77795;BME280;66985;45.778;3.090;2023-02-03T12:04:31;98910.96;;;19.68;15.41
77795;BME280;66985;45.778;3.090;2023-02-03T12:07:04;98905.82;;;19.41;15.61
77795;BME280;66985;45.778;3.090;2023-02-03T12:09:20;98905.66;;;19.14;15.51
77795;BME280;66985;45.778;3.090;2023-02-03T12:11:46;98902.94;;;18.86;15.62
77795;BME280;66985;45.778;3.090;2023-02-03T12:14:11;98897.04;;;19.11;15.55
77795;BME280;66985;45.778;3.090;2023-02-03T12:16:42;98893.50;;;19.08;15.55
77795;BME280;66985;45.778;3.090;2023-02-03T12:18:57;98891.28;;;19.10;15.63
77795;BME280;66985;45.778;3.090;2023-02-03T12:21:30;98887.05;;;18.96;15.71
77795;BME280;66985;45.778;3.090;2023-02-03T12:23:49;98887.46;;;18.84;15.73
77795;BME280;66985;45.778;3.090;2023-02-03T12:26:14;98883.65;;;19.38;15.56
77795;BME280;66985;45.778;3.090;2023-02-03T12:28:42;98882.69;;;19.53;15.42
77795;BME280;66985;45.778;3.090;2023-02-03T12:31:02;98884.14;;;19.18;15.57
77795;BME280;66985;45.778;3.090;2023-02-03T12:33:27;98886.61;;;19.89;15.22
77795;BME280;66985;45.778;3.090;2023-02-03T12:35:52;98893.91;;;19.46;15.38
77795;BME280;66985;45.778;3.090;2023-02-03T12:38:19;98894.22;;;19.38;15.49
77795;BME280;66985;45.778;3.090;2023-02-03T12:40:41;98899.02;;;19.58;15.48
77795;BME280;66985;45.778;3.090;2023-02-03T12:43:19;98897.46;;;19.02;15.81
77795;BME280;66985;45.778;3.090;2023-02-03T12:45:33;98892.63;;;19.32;15.74
77795;BME280;66985;45.778;3.090;2023-02-03T12:47:59;98888.05;;;19.68;15.65
77795;BME280;66985;45.778;3.090;2023-02-03T12:50:28;98884.17;;;19.39;15.77
77795;BME280;66985;45.778;3.090;2023-02-03T12:52:51;98878.04;;;16.37;14.73